Time;durP1;ratioP1;P1;durP2;ratioP2;P2;SDS_P1;SDS_P2;PMS_P1;PMS_P2;Temp;Humidity;BMP_temperature;BMP_pressure;BME280_temperature;BME280_humidity;BME280_pressure;Samples;Min_cycle;Max_cycle;Signal;HPM_P1;HPM_P2
2022/03/26 00:02:11;;;;;;;74.47;50.28;;;27.70;99.90;;;;;;5096535;28;20036;-60
2022/03/26 00:04:37;;;;;;;72.28;53.28;;;27.70;99.90;;;;;;5092207;28;20044;-59
2022/03/26 00:07:05;;;;;;;83.55;56.88;;;27.70;99.90;;;;;;5096455;28;20293;-60
2022/03/26 00:09:31;;;;;;;76.78;55.28;;;27.70;99.90;;;;;;5097082;28;20027;-60
2022/03/26 00:11:58;;;;;;;88.15;61.30;;;27.70;99.90;;;;;;5096342;28;20032;-60
2022/03/26 00:14:25;;;;;;;88.70;60.47;;;27.70;99.90;;;;;;5096933;28;20032;-59
2022/03/26 00:16:51;;;;;;;75.63;55.67;;;27.70;99.90;;;;;;5096713;28;20051;-60
2022/03/26 00:19:18;;;;;;;87.75;69.35;;;27.70;99.90;;;;;;5096690;28;20032;-59
2022/03/26 00:21:47;;;;;;;119.22;91.95;;;27.80;99.90;;;;;;5096718;28;20039;-59
2022/03/26 00:24:15;;;;;;;96.82;68.22;;;27.80;99.90;;;;;;5096342;28;20119;-58
2022/03/26 00:26:41;;;;;;;88.72;64.13;;;27.80;99.90;;;;;;5096512;28;20107;-60
2022/03/26 00:29:08;;;;;;;90.00;66.63;;;27.80;99.90;;;;;;5095797;28;20028;-62
2022/03/26 00:31:37;;;;;;;89.45;66.32;;;27.90;99.90;;;;;;5096207;28;20358;-62
2022/03/26 00:34:05;;;;;;;88.15;66.85;;;27.90;99.90;;;;;;5093784;28;20173;-61
2022/03/26 00:36:33;;;;;;;106.68;71.15;;;28.00;99.90;;;;;;5091167;28;20531;-59
2022/03/26 00:39:00;;;;;;;100.95;71.45;;;28.10;99.90;;;;;;5093896;28;20107;-61
2022/03/26 00:41:28;;;;;;;93.88;69.47;;;28.10;99.90;;;;;;5095528;28;20028;-57
2022/03/26 00:43:56;;;;;;;86.32;66.20;;;28.20;99.90;;;;;;5093060;28;20081;-58
2022/03/26 00:46:23;;;;;;;91.40;65.78;;;28.30;99.90;;;;;;5095649;28;20077;-58
2022/03/26 00:48:50;;;;;;;86.97;63.20;;;28.20;99.90;;;;;;5095640;28;20032;-61
2022/03/26 00:51:17;;;;;;;84.25;57.08;;;28.30;99.90;;;;;;5095621;28;20495;-61
2022/03/26 00:53:45;;;;;;;81.70;55.50;;;28.30;99.90;;;;;;5089300;28;20036;-61
2022/03/26 00:56:12;;;;;;;71.78;50.13;;;28.40;99.90;;;;;;5095567;28;20028;-55
2022/03/26 00:58:40;;;;;;;74.93;49.95;;;28.40;99.90;;;;;;5095371;28;20028;-63
2022/03/26 01:01:08;;;;;;;75.53;48.72;;;28.40;99.90;;;;;;5095881;28;20111;-60
2022/03/26 01:03:35;;;;;;;66.72;44.30;;;28.50;99.90;;;;;;5093682;28;20097;-61
2022/03/26 01:06:03;;;;;;;71.45;45.40;;;28.50;99.90;;;;;;5092887;28;20024;-59
2022/03/26 01:08:29;;;;;;;66.53;46.90;;;28.50;99.90;;;;;;5095641;28;20483;-56
2022/03/26 01:10:56;;;;;;;60.92;42.90;;;28.50;99.90;;;;;;5095345;28;20024;-61
2022/03/26 01:13:25;;;;;;;63.53;45.20;;;28.50;99.90;;;;;;5095544;28;20028;-61
2022/03/26 01:15:52;;;;;;;64.38;42.67;;;28.50;99.90;;;;;;5094826;28;20054;-61
2022/03/26 01:18:19;;;;;;;53.40;37.80;;;28.50;99.90;;;;;;5094865;28;20534;-61
2022/03/26 01:20:46;;;;;;;55.85;40.22;;;28.50;99.90;;;;;;5095081;28;20472;-61
2022/03/26 01:23:12;;;;;;;60.28;39.22;;;28.60;99.90;;;;;;5094990;28;20028;-61
2022/03/26 01:25:39;;;;;;;67.55;41.65;;;;;;;;;;5094389;28;20024;-65
2022/03/26 01:28:06;;;;;;;67.95;42.88;;;;;;;;;;5095015;28;20032;-66
2022/03/26 01:30:33;;;;;;;59.85;38.95;;;;;;;;;;5095005;28;20016;-66
2022/03/26 01:33:00;;;;;;;61.47;42.08;;;;;;;;;;5090693;28;20466;-64
2022/03/26 01:35:27;;;;;;;92.50;61.95;;;;;;;;;;5090719;28;20035;-63
2022/03/26 01:37:53;;;;;;;66.40;45.38;;;;;;;;;;5091800;28;20024;-61
2022/03/26 01:40:20;;;;;;;60.38;41.58;;;;;;;;;;5093975;28;20465;-65
2022/03/26 01:42:47;;;;;;;62.08;41.38;;;;;;;;;;5095094;28;20031;-62
2022/03/26 01:45:14;;;;;;;60.70;40.03;;;;;;;;;;5094980;28;20024;-62
2022/03/26 01:47:41;;;;;;;59.92;40.50;;;;;;;;;;5093953;28;20052;-62
2022/03/26 01:50:08;;;;;;;56.75;40.60;;;;;;;;;;5095030;28;20082;-64
2022/03/26 01:52:35;;;;;;;65.75;43.28;;;;;;;;;;5094271;28;20354;-64
2022/03/26 01:55:01;;;;;;;53.65;38.45;;;;;;;;;;5094034;28;20032;-66
2022/03/26 01:57:29;;;;;;;54.30;39.10;;;;;;;;;;5094757;28;20036;-62
2022/03/26 01:59:55;;;;;;;49.63;34.95;;;;;;;;;;5094744;28;20039;-61
2022/03/26 02:02:23;;;;;;;46.13;31.48;;;;;;;;;;5093822;28;20016;-61
2022/03/26 02:04:51;;;;;;;44.30;33.28;;;;;;;;;;5092754;28;20056;-60
2022/03/26 02:07:17;;;;;;;48.15;35.17;;;;;;;;;;5094800;28;20031;-61
2022/03/26 02:09:44;;;;;;;72.57;52.70;;;;;;;;;;5093773;28;20023;-61
2022/03/26 02:12:23;;;;;;;98.35;69.97;;;;;;;;;;5094020;28;20070;-62
2022/03/26 02:14:49;;;;;;;70.20;47.35;;;;;;;;;;5094233;28;20427;-62
2022/03/26 02:17:19;;;;;;;61.80;43.70;;;;;;;;;;5088266;28;20053;-62
2022/03/26 02:19:49;;;;;;;60.20;44.35;;;;;;;;;;5090676;28;20039;-63
2022/03/26 02:22:16;;;;;;;51.25;40.42;;;;;;;;;;5085087;28;20436;-61
2022/03/26 02:24:43;;;;;;;41.85;29.33;;;;;;;;;;5091077;28;20431;-64
2022/03/26 02:27:09;;;;;;;180.20;148.90;;;;;;;;;;5092147;28;20804;-61
2022/03/26 02:29:36;;;;;;;53.63;41.05;;;;;;;;;;5093273;28;20020;-62
2022/03/26 02:32:03;;;;;;;44.95;35.20;;;;;;;;;;5087104;28;20111;-62
2022/03/26 02:34:30;;;;;;;41.35;31.25;;;;;;;;;;5091274;28;20032;-63
2022/03/26 02:36:57;;;;;;;54.33;34.67;;;;;;;;;;5091329;28;20020;-65
2022/03/26 02:39:24;;;;;;;49.30;36.28;;;;;;;;;;5091956;28;20103;-63
2022/03/26 02:41:50;;;;;;;54.47;40.63;;;;;;;;;;5089536;28;20480;-63
2022/03/26 02:44:17;;;;;;;68.15;48.20;;;;;;;;;;5092106;28;20085;-65
2022/03/26 02:46:45;;;;;;;53.70;40.13;;;;;;;;;;5092723;28;20103;-64
2022/03/26 02:49:13;;;;;;;49.58;40.03;;;;;;;;;;5092438;28;20338;-64
2022/03/26 02:51:40;;;;;;;41.20;31.25;;;;;;;;;;5091609;28;20036;-63
2022/03/26 02:54:18;;;;;;;41.15;24.38;;;;;;;;;;5092456;28;20418;-64
2022/03/26 02:56:46;;;;;;;45.33;23.10;;;;;;;;;;5091511;28;20059;-66
2022/03/26 02:59:12;;;;;;;32.17;21.05;;;;;;;;;;5091245;28;20034;-64
2022/03/26 03:01:39;;;;;;;33.65;23.33;;;;;;;;;;5092523;28;20034;-63
2022/03/26 03:04:06;;;;;;;39.53;23.95;;;;;;;;;;5091732;28;20309;-64
2022/03/26 03:06:33;;;;;;;35.72;25.48;;;;;;;;;;5091967;28;20024;-65
2022/03/26 03:09:00;;;;;;;36.42;22.63;;;;;;;;;;5091383;28;20024;-64
2022/03/26 03:11:30;;;;;;;30.67;21.73;;;;;;;;;;5090789;28;20038;-62
2022/03/26 03:13:57;;;;;;;31.45;22.83;;;;;;;;;;5091153;28;20035;-63
2022/03/26 03:16:24;;;;;;;32.47;21.98;;;;;;;;;;5092467;28;20032;-63
2022/03/26 03:18:51;;;;;;;32.38;20.95;;;;;;;;;;5092798;28;20028;-64
2022/03/26 03:21:18;;;;;;;35.67;21.33;;;;;;;;;;5094897;28;20062;-64
2022/03/26 03:23:44;;;;;;;33.70;20.65;;;;;;;;;;5097001;28;20020;-64
2022/03/26 03:26:11;;;;;;;27.10;19.27;;;;;;;;;;5097690;28;20013;-65
2022/03/26 03:28:38;;;;;;;32.60;17.10;;;;;;;;;;5096948;28;20024;-66
2022/03/26 03:31:07;;;;;;;29.38;15.75;;;;;;;;;;5097317;28;20464;-65
2022/03/26 03:33:34;;;;;;;33.97;16.17;;;;;;;;;;5096863;28;20024;-66
2022/03/26 03:36:01;;;;;;;24.08;16.35;;;;;;;;;;5096690;28;20500;-65
2022/03/26 03:38:28;;;;;;;23.73;16.58;;;;;;;;;;5097010;28;20388;-65
2022/03/26 03:40:55;;;;;;;24.63;16.42;;;;;;;;;;5096920;28;20024;-64
2022/03/26 03:43:22;;;;;;;27.50;17.30;;;;;;;;;;5097151;28;20074;-64
2022/03/26 03:45:49;;;;;;;25.17;16.42;;;;;;;;;;5090170;28;20110;-64
2022/03/26 03:48:16;;;;;;;20.83;15.43;;;;;;;;;;5094185;28;20020;-63
2022/03/26 03:50:44;;;;;;;27.60;17.55;;;;;;;;;;5093307;28;20063;-63
2022/03/26 03:53:11;;;;;;;27.40;17.08;;;;;;;;;;5096182;28;20024;-67
2022/03/26 03:55:37;;;;;;;27.50;17.60;;;;;;;;;;5096108;28;20357;-64
2022/03/26 03:58:04;;;;;;;29.77;17.77;;;;;;;;;;5096735;28;20381;-63
2022/03/26 04:00:31;;;;;;;27.00;19.80;;;;;;;;;;5097057;28;20020;-65
2022/03/26 04:03:00;;;;;;;33.78;21.08;;;;;;;;;;5096732;28;20397;-64
2022/03/26 04:05:27;;;;;;;31.90;21.13;;;;;;;;;;5096910;28;20024;-64
2022/03/26 04:07:53;;;;;;;30.30;20.15;;;;;;;;;;5095315;28;20418;-64
2022/03/26 04:10:20;;;;;;;30.50;20.83;;;;;;;;;;5097094;28;20016;-65
2022/03/26 04:12:47;;;;;;;34.70;19.48;;;;;;;;;;5096080;28;20020;-63
2022/03/26 04:15:14;;;;;;;28.30;17.63;;;;;;;;;;5094174;28;20028;-64
2022/03/26 04:17:42;;;;;;;29.90;20.38;;;;;;;;;;5096350;28;20552;-65
2022/03/26 04:20:10;;;;;;;28.63;19.15;;;;;;;;;;5095609;28;20032;-65
2022/03/26 04:22:37;;;;;;;33.08;18.73;;;;;;;;;;5094440;28;20056;-64
2022/03/26 04:25:04;;;;;;;21.80;16.52;;;;;;;;;;5095084;28;20174;-65
2022/03/26 04:27:32;;;;;;;24.95;15.93;;;;;;;;;;5096038;28;20485;-65
2022/03/26 04:29:59;;;;;;;24.98;16.30;;;;;;;;;;5095890;28;20070;-64
2022/03/26 04:32:26;;;;;;;25.60;16.92;;;;;;;;;;5092840;28;20027;-65
2022/03/26 04:34:54;;;;;;;24.00;17.88;;;;;;;;;;5095653;28;20039;-64
2022/03/26 04:37:20;;;;;;;22.20;15.68;;;;;;;;;;5095137;28;20499;-65
2022/03/26 04:39:47;;;;;;;30.25;18.10;;;;;;;;;;5095784;28;20032;-65
2022/03/26 04:42:14;;;;;;;27.45;17.60;;;;;;;;;;5094148;28;20030;-65
2022/03/26 04:44:40;;;;;;;29.92;17.38;;;;;;;;;;5095543;28;20380;-63
2022/03/26 04:47:07;;;;;;;32.50;18.15;;;;;;;;;;5095342;28;20031;-64
2022/03/26 04:49:34;;;;;;;32.25;20.05;;;;;;;;;;5093799;28;20020;-65
2022/03/26 04:52:01;;;;;;;29.20;19.83;;;;;;;;;;5094967;28;20016;-64
2022/03/26 04:54:27;;;;;;;40.70;23.42;;;;;;;;;;5094299;28;20111;-64
2022/03/26 04:56:54;;;;;;;37.95;26.00;;;;;;;;;;5095172;28;20016;-64
2022/03/26 04:59:21;;;;;;;35.88;25.73;;;;;;;;;;5095453;28;20557;-65
2022/03/26 05:01:48;;;;;;;35.00;23.42;;;;;;;;;;5093460;28;20059;-65
2022/03/26 05:04:15;;;;;;;33.70;20.95;;;;;;;;;;5094450;28;20040;-65
2022/03/26 05:06:41;;;;;;;32.20;20.23;;;;;;;;;;5095234;28;20020;-64
2022/03/26 05:09:08;;;;;;;36.53;21.00;;;;;;;;;;5091886;28;20065;-67
2022/03/26 05:11:37;;;;;;;36.85;20.38;;;;;;;;;;5094446;28;20384;-65
2022/03/26 05:14:04;;;;;;;28.65;20.38;;;;;;;;;;5095336;28;20026;-64
2022/03/26 05:16:31;;;;;;;30.92;19.42;;;;;;;;;;5091099;28;20043;-68
2022/03/26 05:18:57;;;;;;;30.88;21.27;;;;;;;;;;5091267;28;20115;-63
2022/03/26 05:21:25;;;;;;;31.70;21.25;;;;;;;;;;5094943;28;20262;-65
2022/03/26 05:23:51;;;;;;;34.85;21.30;;;;;;;;;;5093806;28;20035;-65
2022/03/26 05:26:21;;;;;;;98.60;70.18;;;;;;;;;;5092459;28;20016;-63
2022/03/26 05:28:47;;;;;;;41.15;25.05;;;;;;;;;;5092503;28;20055;-67
2022/03/26 05:31:14;;;;;;;45.25;29.85;;;;;;;;;;5093599;28;20090;-64
2022/03/26 05:33:41;;;;;;;32.60;22.67;;;;;;;;;;5093977;28;20039;-63
2022/03/26 05:36:07;;;;;;;33.03;21.60;;;;;;;;;;5094286;28;20020;-63
2022/03/26 05:38:34;;;;;;;36.75;17.67;;;;;;;;;;5093890;28;20027;-70
2022/03/26 05:41:01;;;;;;;29.55;16.40;;;;;;;;;;5093442;28;20020;-63
2022/03/26 05:43:28;;;;;;;28.83;17.48;;;;;;;;;;5092947;28;20024;-66
2022/03/26 05:45:55;;;;;;;27.02;17.45;;;;;;;;;;5093616;28;20590;-64
2022/03/26 05:48:21;;;;;;;24.77;14.73;;;;;;;;;;5094148;28;20098;-64
2022/03/26 05:50:48;;;;;;;22.42;14.02;;;;;;;;;;5093972;28;20044;-63
2022/03/26 05:53:15;;;;;;;20.77;12.70;;;;;;;;;;5094040;28;20028;-65
2022/03/26 05:55:42;;;;;;;83.10;57.33;;;;;;;;;;5093910;28;20027;-69
2022/03/26 05:58:10;;;;;;;27.40;17.15;;;;;;;;;;5093703;28;20389;-65
2022/03/26 06:00:37;;;;;;;21.63;13.13;;;;;;;;;;5094417;28;20477;-64
2022/03/26 06:03:04;;;;;;;25.58;11.93;;;;;;;;;;5091755;28;20476;-65
2022/03/26 06:05:31;;;;;;;57.08;45.97;;;;;;;;;;5092994;28;20028;-66
2022/03/26 06:07:58;;;;;;;27.45;18.58;;;;;;;;;;5093536;28;20365;-65
2022/03/26 06:10:25;;;;;;;25.02;16.50;;;;;;;;;;5092601;28;20032;-64
2022/03/26 06:12:52;;;;;;;30.25;22.10;;;;;;;;;;5093721;28;20036;-64
2022/03/26 06:15:19;;;;;;;25.05;17.00;;;;;;;;;;5092963;28;20482;-63
2022/03/26 06:17:46;;;;;;;24.83;16.00;;;;;;;;;;5093389;28;20437;-64
2022/03/26 06:20:13;;;;;;;32.78;23.15;;;;;;;;;;5092961;28;20024;-63
2022/03/26 06:22:40;;;;;;;30.85;21.33;;;;;;;;;;5093200;28;20028;-65
2022/03/26 06:25:07;;;;;;;27.60;17.80;;;;;;;;;;5092360;28;20020;-65
2022/03/26 06:27:33;;;;;;;22.08;15.30;;;;;;;;;;5093094;28;20118;-62
2022/03/26 06:30:00;;;;;;;29.73;17.48;;;;;;;;;;5092810;28;20099;-65
2022/03/26 06:32:27;;;;;;;25.65;17.00;;;;;;;;;;5092983;28;20023;-64
2022/03/26 06:34:54;;;;;;;26.48;17.30;;;;;;;;;;5092726;28;20044;-64
2022/03/26 06:37:23;;;;;;;35.72;19.05;;;;;;;;;;5086165;28;20032;-65
2022/03/26 06:39:50;;;;;;;24.77;16.80;;;;;;;;;;5079799;28;20451;-65
2022/03/26 06:42:17;;;;;;;32.97;18.08;;;;;;;;;;5089490;28;20028;-63
2022/03/26 06:44:44;;;;;;;30.67;18.23;;;;;;;;;;5092452;28;20038;-63
2022/03/26 06:47:11;;;;;;;28.75;17.83;;;;;;;;;;5085849;28;20038;-63
2022/03/26 06:49:38;;;;;;;31.70;18.92;;;;;;;;;;5092555;28;20024;-64
2022/03/26 06:52:05;;;;;;;30.35;18.45;;;;;;;;;;5093658;28;20031;-63
2022/03/26 06:54:32;;;;;;;29.70;17.83;;;;;;;;;;5093474;28;20392;-63
2022/03/26 06:56:59;;;;;;;53.75;38.33;;;;;;;;;;5093914;28;20035;-62
2022/03/26 06:59:26;;;;;;;33.03;21.60;;;;;;;;;;5092063;28;20154;-61
2022/03/26 07:01:52;;;;;;;33.35;21.08;;;;;;;;;;5093825;28;20442;-61
2022/03/26 07:04:19;;;;;;;36.35;27.40;;;;;;;;;;5092870;28;20127;-63
2022/03/26 07:06:49;;;;;;;40.92;25.23;;;;;;;;;;5091404;28;20044;-63
2022/03/26 07:09:16;;;;;;;33.03;24.30;;;;;;;;;;5088894;28;20012;-63
2022/03/26 07:11:43;;;;;;;38.83;25.10;;;;;;;;;;5093338;28;20107;-63
2022/03/26 07:14:10;;;;;;;36.50;22.15;;;;;;;;;;5092851;28;20392;-63
2022/03/26 07:16:36;;;;;;;30.80;22.13;;;;;;;;;;5093243;28;20048;-63
2022/03/26 07:19:03;;;;;;;34.10;22.25;;;;;;;;;;5092416;28;20032;-63
2022/03/26 07:21:31;;;;;;;33.65;23.88;;;;;;;;;;5088518;28;20481;-63
2022/03/26 07:23:58;;;;;;;37.80;24.40;;;;;;;;;;5093184;28;20032;-64
2022/03/26 07:26:25;;;;;;;40.22;25.67;;;;;;;;;;5092429;28;20080;-67
2022/03/26 07:28:52;;;;;;;39.80;28.88;;;;;;;;;;5088859;28;20036;-63
2022/03/26 07:31:19;;;;;;;45.78;29.90;;;;;;;;;;5092327;28;20028;-65
2022/03/26 07:33:45;;;;;;;42.38;28.63;;;;;;;;;;5092865;28;20476;-62
2022/03/26 07:36:12;;;;;;;45.58;29.17;;;;;;;;;;5092890;28;20035;-63
2022/03/26 07:38:39;;;;;;;43.20;27.90;;;;;;;;;;5092169;28;20020;-63
2022/03/26 07:41:07;;;;;;;47.78;30.58;;;;;;;;;;5090078;28;20024;-64
2022/03/26 07:43:33;;;;;;;43.50;30.33;;;;;;;;;;5093184;28;20526;-63
2022/03/26 07:46:00;;;;;;;36.75;27.15;;;;;;;;;;5093202;28;20052;-64
2022/03/26 07:48:27;;;;;;;38.22;27.27;;;;;;;;;;5093217;28;20020;-66
2022/03/26 07:50:54;;;;;;;46.65;31.00;;;;;;;;;;5093002;28;20526;-66
2022/03/26 07:53:22;;;;;;;43.50;26.80;;;;;;;;;;5092981;28;20389;-61
2022/03/26 07:55:49;;;;;;;38.65;28.08;;;;;;;;;;5093363;28;20024;-63
2022/03/26 07:58:16;;;;;;;40.78;28.48;;;;;;;;;;5090600;28;20027;-62
2022/03/26 08:00:43;;;;;;;39.75;27.42;;;;;;;;;;5085903;28;20079;-67
2022/03/26 08:03:10;;;;;;;48.92;30.08;;;;;;;;;;5091644;28;20386;-62
2022/03/26 08:05:37;;;;;;;44.78;31.73;;;;;;;;;;5091985;28;20024;-62
2022/03/26 08:08:04;;;;;;;66.97;51.10;;;;;;;;;;5096016;28;20020;-64
2022/03/26 08:10:31;;;;;;;92.85;61.90;;;;;;;;;;5096833;28;20062;-63
2022/03/26 08:12:58;;;;;;;60.97;40.88;;;;;;;;;;5096067;28;20020;-64
2022/03/26 08:15:25;;;;;;;55.97;36.72;;;;;;;;;;5096723;28;20057;-64
2022/03/26 08:17:51;;;;;;;57.33;34.72;;;;;;;;;;5096579;28;20028;-62
2022/03/26 08:20:18;;;;;;;46.03;29.95;;;;;;;;;;5096052;28;20543;-64
2022/03/26 08:22:45;;;;;;;43.85;29.75;;;;;;;;;;5095699;28;20043;-63
2022/03/26 08:26:19;;;;;;;38.53;27.88;;;;;;;;;;5095682;28;20078;-63
2022/03/26 08:27:58;;;;;;;39.42;26.60;;;;;;;;;;5094324;28;20025;-64
2022/03/26 08:30:25;;;;;;;41.42;26.98;;;;;;;;;;5095997;28;20107;-62
2022/03/26 08:32:52;;;;;;;42.88;28.63;;;;;;;;;;5091327;28;20033;-62
2022/03/26 08:35:18;;;;;;;63.38;48.45;;;;;;;;;;5085142;28;20473;-64
2022/03/26 08:37:45;;;;;;;94.88;73.20;;;;;;;;;;5076109;28;20066;-65
2022/03/26 08:40:12;;;;;;;166.60;146.82;;;;;;;;;;5080265;28;20035;-63
2022/03/26 08:42:38;;;;;;;83.32;61.08;;;;;;;;;;5095340;28;20469;-64
2022/03/26 08:45:05;;;;;;;48.75;35.08;;;;;;;;;;5093530;28;20032;-64
2022/03/26 08:47:32;;;;;;;58.58;36.95;;;;;;;;;;5081260;28;20457;-63
2022/03/26 08:49:59;;;;;;;67.10;33.92;;;;;;;;;;5075931;28;20024;-62
2022/03/26 08:52:26;;;;;;;60.88;36.22;;;;;;;;;;5075937;28;20110;-62
2022/03/26 08:54:53;;;;;;;94.43;42.53;;;;;;;;;;5075853;28;20107;-62
2022/03/26 08:57:19;;;;;;;62.00;37.50;;;;;;;;;;5087126;28;20028;-62
2022/03/26 08:59:46;;;;;;;56.03;42.05;;;;;;;;;;5095720;28;20066;-62
2022/03/26 09:02:13;;;;;;;50.13;34.38;;;;;;;;;;5095653;28;20065;-60
2022/03/26 09:04:39;;;;;;;53.10;34.85;;;;;;;;;;5095044;28;20071;-61
2022/03/26 09:07:06;;;;;;;79.07;59.13;;;;;;;;;;5095645;28;20020;-62
2022/03/26 09:09:33;;;;;;;73.28;53.95;;;;;;;;;;5095033;28;20031;-64
2022/03/26 09:11:59;;;;;;;60.08;37.17;;;;;;;;;;5095036;28;20020;-62
2022/03/26 09:14:26;;;;;;;69.82;46.90;;;;;;;;;;5095351;28;20043;-63
2022/03/26 09:16:53;;;;;;;59.92;41.20;;;;;;;;;;5092042;28;20024;-63
2022/03/26 09:19:19;;;;;;;84.28;52.42;;;;;;;;;;5092046;28;20121;-63
2022/03/26 09:21:46;;;;;;;115.55;82.38;;;;;;;;;;5095302;28;20027;-63
2022/03/26 09:24:15;;;;;;;117.95;81.10;;;;;;;;;;5095172;28;20024;-62
2022/03/26 09:26:42;;;;;;;112.38;78.03;;;;;;;;;;5091959;28;20048;-62
2022/03/26 09:29:09;;;;;;;150.95;103.30;;;;;;;;;;5093643;28;20476;-63
2022/03/26 09:31:36;;;;;;;98.15;63.55;;;;;;;;;;5089961;28;20052;-63
2022/03/26 09:34:03;;;;;;;82.93;59.38;;;;;;;;;;5094177;28;20016;-63
2022/03/26 09:36:29;;;;;;;73.53;50.38;;;;;;;;;;5087216;28;20039;-63
2022/03/26 09:38:56;;;;;;;70.43;50.63;;;;;;;;;;5095116;28;20032;-63
2022/03/26 09:41:23;;;;;;;61.30;44.38;;;;;;;;;;5095137;28;20016;-62
2022/03/26 09:43:50;;;;;;;77.88;52.40;;;;;;;;;;5095009;28;20031;-61
2022/03/26 09:46:16;;;;;;;79.53;52.75;;;;;;;;;;5094201;28;20024;-60
2022/03/26 09:48:43;;;;;;;71.07;53.88;;;;;;;;;;5094005;28;20102;-63
2022/03/26 09:51:11;;;;;;;80.22;59.72;;;;;;;;;;5090577;28;20046;-63
2022/03/26 09:53:38;;;;;;;90.50;67.00;;;;;;;;;;5094375;28;20109;-64
2022/03/26 09:56:05;;;;;;;91.97;65.28;;;;;;;;;;5093882;28;20042;-62
2022/03/26 09:58:32;;;;;;;99.35;69.80;;;;;;;;;;5091332;28;20103;-67
2022/03/26 10:00:59;;;;;;;87.10;60.10;;;;;;;;;;5093739;28;20020;-64
2022/03/26 10:03:26;;;;;;;80.25;58.28;;;;;;;;;;5093570;28;20052;-63
2022/03/26 10:06:04;;;;;;;85.28;59.80;;;;;;;;;;5091760;28;20024;-62
2022/03/26 10:08:34;;;;;;;79.70;56.15;;;;;;;;;;5093758;28;20491;-63
2022/03/26 10:11:01;;;;;;;86.28;58.60;;;29.50;99.90;;;;;;5093488;28;20016;-63
2022/03/26 10:13:38;;;;;;;92.00;63.58;;;29.50;99.90;;;;;;5093174;28;20012;-61
2022/03/26 10:16:11;;;;;;;125.13;84.30;;;29.50;99.90;;;;;;5093133;28;20035;-64
2022/03/26 10:18:40;;;;;;;121.88;84.30;;;29.50;99.90;;;;;;5092372;28;20021;-61
2022/03/26 10:21:09;;;;;;;148.80;110.20;;;29.50;99.90;;;;;;5093552;28;20020;-64
2022/03/26 10:23:36;;;;;;;132.50;88.25;;;29.50;99.90;;;;;;5092437;28;20027;-63
2022/03/26 10:26:07;;;;;;;127.63;84.43;;;29.50;99.90;;;;;;5094795;28;20023;-67
2022/03/26 10:28:34;;;;;;;133.52;96.30;;;29.40;99.90;;;;;;5094924;28;20468;-59
2022/03/26 10:33:47;;;;;;;104.75;66.05;;;29.40;99.90;;;;;;5094218;28;20467;-62
2022/03/26 10:36:20;;;;;;;159.18;102.72;;;29.40;99.90;;;;;;5094290;28;20055;-63
2022/03/26 10:38:47;;;;;;;147.75;96.28;;;29.30;99.90;;;;;;5094285;28;20027;-62
2022/03/26 10:41:14;;;;;;;109.90;68.65;;;29.30;99.90;;;;;;5093971;28;20032;-61
2022/03/26 10:43:42;;;;;;;95.35;58.42;;;29.30;99.90;;;;;;5093456;28;20032;-61
2022/03/26 10:46:09;;;;;;;70.53;48.70;;;29.20;99.90;;;;;;5094018;28;20030;-62
2022/03/26 10:48:37;;;;;;;71.90;47.67;;;29.10;99.90;;;;;;5094591;28;20024;-62
2022/03/26 10:51:09;;;;;;;85.07;49.17;;;29.10;99.90;;;;;;5094284;28;20063;-62
2022/03/26 10:53:38;;;;;;;90.72;54.58;;;29.20;99.90;;;;;;5093775;28;20055;-63
2022/03/26 10:56:07;;;;;;;77.28;50.95;;;29.20;99.90;;;;;;5088192;28;20401;-62
2022/03/26 10:58:35;;;;;;;80.00;48.42;;;29.00;99.90;;;;;;5089547;28;20103;-63
2022/03/26 11:01:03;;;;;;;72.25;49.38;;;28.90;99.90;;;;;;5092469;28;20024;-61
2022/03/26 11:03:30;;;;;;;73.40;48.20;;;28.90;99.90;;;;;;5091783;28;20084;-62
2022/03/26 11:05:58;;;;;;;99.20;64.32;;;28.90;99.90;;;;;;5093104;28;20475;-64
2022/03/26 11:08:29;;;;;;;91.40;63.40;;;28.90;99.90;;;;;;5090478;28;20020;-65
2022/03/26 11:10:56;;;;;;;93.07;56.92;;;28.90;99.90;;;;;;5091370;28;20107;-59
2022/03/26 11:13:26;;;;;;;90.75;57.38;;;28.90;99.90;;;;;;5093428;28;20034;-60
2022/03/26 11:15:58;;;;;;;90.57;61.60;;;28.90;99.90;;;;;;5092072;28;20031;-61
2022/03/26 11:18:31;;;;;;;77.47;52.22;;;28.90;99.90;;;;;;5094336;28;20525;-60
2022/03/26 11:21:28;;;;;;;78.32;50.35;;;28.90;99.90;;;;;;5091506;28;20020;-59
2022/03/26 11:24:26;;;;;;;79.60;50.60;;;28.90;99.90;;;;;;5089696;28;20047;-60
2022/03/26 11:27:04;;;;;;;69.65;44.25;;;28.80;99.90;;;;;;5086890;28;20034;-61
2022/03/26 11:29:43;;;;;;;69.45;45.35;;;28.80;99.90;;;;;;5092447;28;20051;-61
2022/03/26 11:32:29;;;;;;;71.60;47.95;;;28.70;99.90;;;;;;5093357;28;20029;-62
2022/03/26 11:35:01;;;;;;;67.10;46.20;;;28.70;99.90;;;;;;5092337;28;20103;-62
2022/03/26 11:37:28;;;;;;;87.60;56.75;;;28.80;99.90;;;;;;5092815;28;20032;-62
2022/03/26 11:39:58;;;;;;;78.55;50.42;;;28.70;99.90;;;;;;5092625;28;20028;-61
2022/03/26 11:42:31;;;;;;;72.88;44.13;;;28.70;99.90;;;;;;5092548;28;20032;-63
2022/03/26 11:53:08;;;;;;;55.35;37.15;;;28.50;99.90;;;;;;5096729;28;20081;-62
2022/03/26 11:55:47;;;;;;;58.22;34.90;;;28.60;99.90;;;;;;5087898;28;20024;-61
2022/03/26 11:58:26;;;;;;;54.30;35.78;;;28.50;99.90;;;;;;5093672;28;20518;-61
2022/03/26 12:00:53;;;;;;;67.13;36.55;;;28.60;99.90;;;;;;5077706;22;20057;-61
2022/03/26 12:03:25;;;;;;;75.22;44.15;;;28.60;99.90;;;;;;5047744;28;20408;-60
2022/03/26 12:08:39;;;;;;;89.35;51.65;;;28.50;99.90;;;;;;5046716;28;20055;-60
2022/03/26 12:11:06;;;;;;;67.80;43.45;;;28.60;99.90;;;;;;5049664;28;20036;-62
2022/03/26 12:13:34;;;;;;;70.97;44.10;;;28.70;99.90;;;;;;5056077;28;20025;-64
2022/03/26 12:16:04;;;;;;;98.97;70.07;;;28.80;99.90;;;;;;5055097;28;21326;-62
2022/03/26 12:18:38;;;;;;;118.38;81.95;;;28.80;99.90;;;;;;5054115;28;20102;-62
2022/03/26 12:21:22;;;;;;;118.15;77.43;;;28.80;99.90;;;;;;5052963;28;20036;-61
2022/03/26 12:23:52;;;;;;;111.20;74.90;;;28.70;99.90;;;;;;5052255;28;20458;-62
2022/03/26 12:26:21;;;;;;;86.70;56.95;;;28.70;99.90;;;;;;5049641;28;20104;-60
2022/03/26 12:28:50;;;;;;;107.45;71.15;;;28.70;99.90;;;;;;5053807;28;20072;-63
2022/03/26 12:31:18;;;;;;;93.80;59.03;;;28.70;99.90;;;;;;5051261;28;20106;-64
2022/03/26 12:33:52;;;;;;;70.30;46.40;;;28.70;99.90;;;;;;5050347;28;20041;-62
2022/03/26 12:36:21;;;;;;;72.93;43.13;;;28.60;99.90;;;;;;5055100;28;20164;-63
2022/03/26 12:38:49;;;;;;;75.55;44.78;;;28.60;99.90;;;;;;5053277;28;20119;-62
2022/03/26 12:41:16;;;;;;;70.07;44.05;;;28.50;99.90;;;;;;5055970;28;20025;-63
2022/03/26 12:44:00;;;;;;;73.35;44.97;;;28.50;99.90;;;;;;5054538;28;20468;-62
2022/03/26 12:46:35;;;;;;;93.18;52.10;;;28.40;99.90;;;;;;5054994;28;20545;-63
2022/03/26 12:49:17;;;;;;;93.45;49.42;;;28.30;99.90;;;;;;5055537;28;20036;-62
2022/03/26 12:51:44;;;;;;;69.38;44.65;;;28.30;99.90;;;;;;5048275;28;20108;-62
2022/03/26 12:54:13;;;;;;;71.25;46.10;;;28.40;99.90;;;;;;5055380;28;20426;-63
2022/03/26 12:56:41;;;;;;;78.65;46.85;;;28.50;99.90;;;;;;5052950;28;20033;-63
2022/03/26 12:59:08;;;;;;;73.72;44.70;;;28.40;99.90;;;;;;5053018;28;20041;-62
2022/03/26 13:01:36;;;;;;;84.40;48.35;;;28.40;99.90;;;;;;5047907;28;20469;-61
2022/03/26 13:04:03;;;;;;;74.70;45.38;;;28.40;99.90;;;;;;5052313;28;20025;-60
2022/03/26 13:06:30;;;;;;;72.63;43.40;;;28.30;99.90;;;;;;5054570;28;20363;-60
2022/03/26 13:08:59;;;;;;;184.00;123.53;;;28.30;99.90;;;;;;5055536;28;20041;-61
2022/03/26 13:11:28;;;;;;;94.57;58.45;;;28.20;99.90;;;;;;5054222;28;20631;-61
2022/03/26 13:13:57;;;;;;;89.15;56.88;;;28.30;99.90;;;;;;5048837;28;20026;-62
2022/03/26 13:16:29;;;;;;;74.60;48.83;;;28.20;99.90;;;;;;5049667;28;20584;-63
2022/03/26 13:19:02;;;;;;;91.00;59.63;;;28.20;99.90;;;;;;5050865;28;20033;-60
2022/03/26 13:21:31;;;;;;;84.93;55.28;;;28.20;99.90;;;;;;5053017;28;20061;-62
2022/03/26 13:24:00;;;;;;;143.82;97.68;;;28.30;99.90;;;;;;5050809;28;20052;-63
2022/03/26 13:26:46;;;;;;;94.47;59.33;;;28.30;99.90;;;;;;5053028;28;20061;-63
2022/03/26 13:29:22;;;;;;;72.88;48.25;;;28.40;99.90;;;;;;5051605;28;20025;-60
2022/03/26 13:31:53;;;;;;;69.60;43.95;;;28.40;99.90;;;;;;5053854;28;20025;-61
2022/03/26 13:34:26;;;;;;;72.80;42.67;;;28.30;99.90;;;;;;5053442;28;20025;-61
2022/03/26 13:36:54;;;;;;;59.42;38.58;;;28.30;99.90;;;;;;5047799;28;20041;-61
2022/03/26 13:39:29;;;;;;;56.47;37.47;;;28.30;99.90;;;;;;5050455;28;20033;-61
2022/03/26 13:41:57;;;;;;;62.10;39.20;;;28.20;99.90;;;;;;5050385;28;20071;-62
2022/03/26 13:44:25;;;;;;;57.03;39.35;;;28.30;99.90;;;;;;5050740;28;20028;-61
2022/03/26 13:46:52;;;;;;;57.08;37.47;;;28.20;99.90;;;;;;5050761;28;20028;-61
2022/03/26 13:49:27;;;;;;;68.78;41.63;;;28.30;99.90;;;;;;5050969;28;20033;-60
2022/03/26 13:51:54;;;;;;;66.18;41.08;;;28.40;99.90;;;;;;5049792;28;20071;-62
2022/03/26 13:54:32;;;;;;;65.18;41.40;;;28.30;99.90;;;;;;5052870;28;20049;-62